KECS/ECS METAR and TAF weather

Enter ICAO airport designator
Station Type Date Time Source
KECS METAR 2021/05/10 20:55 UTC NOAA

KECS 102055Z AUTO 08009KT 10SM -RA SCT042 OVC050 07/00 A3020 RMK AO2


Station Type Date Time Source
KECS Decoded METAR 2021/05/10 20:55 UTC NOAA

Station name not available
May 10, 2021 - 04:55 PM EDT / 2021.05.10 2055 UTC
Wind: from the E (080 degrees) at 10 MPH (9 KT):0
Visibility: 10 mile(s):0
Sky conditions: overcast
Weather: light rain
Temperature: 44 F (7 C)
Dew Point: 32 F (0 C)
Relative Humidity: 60%
Pressure (altimeter): 30.2 in. Hg (1022 hPa)
ob: KECS 102055Z AUTO 08009KT 10SM -RA SCT042 OVC050 07/00 A3020 RMK AO2
cycle: 21

Station Type Date Time Source
KECS TAF UTC NOAA

Error!

Example: see airport list